• Join FlightAware (Why Join?)
  • Login
  • US Flag 
 
03:40PM EST


 

Airport Tracker/Info


-or-


 

Live Flight TrackerFlight Track Log ✈ GJS6254 ✈ 03-Jul-2013 ✈ KJFK - KORF

Flight Track Log - Related Links

Times and Time Zones

All times are in EDT time to prevent confusion due to time zone crossing. See the GJS6254 flight status page for this flight to view local times or setup timezone preferences in your user account.

Time Position Orientation Groundspeed Altitude Reporting Facility
EDT Latitude Longitude Course Direction KTS MPH feet Rate Location/Type
08:40PM 40.5667 -73.8167 146° Southeast 207 238 3,800  Level New York TRACON
08:42PM 40.4797 -73.6961 133° Southeast 280 322 5,000 360 Climbing New York Center
08:43PM 40.4378 -73.6233 127° Southeast 280 322 5,000  Level New York Center
08:44PM 40.3747 -73.5525 139° Southeast 275 316 5,000  Level New York Center
08:45PM 40.3200 -73.4906 139° Southeast 285 328 5,000 1,260 Level New York Center
08:46PM 40.1923 -73.3468 146° Southeast  Level FlightAware Approximate
08:46PM 40.2481 -73.4442 154° Southeast 279 321 7,500  Level New York Center
08:47PM 40.1808 -73.4633 192° South 256 295 9,900 2,160 Climbing New York Center
08:48PM 40.0947 -73.4925 195° South 282 325 11,900 1,500 Climbing New York Center
08:49PM 40.0150 -73.5164 193° South 318 366 13,000 1,260 Climbing New York Center
08:50PM 39.9081 -73.5528 195° South 346 398 14,400 1,440 Climbing New York Center
08:51PM 39.8069 -73.5867 194° South 364 419 15,900 1,440 Climbing New York Center
08:53PM 39.6817 -73.6853 211° Southwest 359 413 17,900 1,320 Climbing Washington Center
08:54PM 39.6058 -73.7761 223° Southwest 374 430 19,200 1,380 Climbing Washington Center
08:55PM 39.5283 -73.8750 225° Southwest 385 443 20,700 1,500 Climbing Washington Center
08:56PM 39.4525 -73.9708 224° Southwest 385 443 22,200 1,380 Climbing Washington Center
08:57PM 39.3703 -74.0614 220° Southwest 390 449 23,600 1,260 Climbing Washington Center
08:58PM 39.2900 -74.1517 221° Southwest 390 449 24,800 1,140 Climbing Washington Center
08:59PM 39.2078 -74.2417 220° Southwest 390 449 25,900 600 Climbing Washington Center
09:00PM 39.1233 -74.3342 220° Southwest 390 449 26,000  Climbing Washington Center
09:01PM 39.0328 -74.4319 220° Southwest 408 470 26,000  Level Washington Center
09:02PM 38.9419 -74.5294 220° Southwest 419 482 26,000  Level Washington Center
09:03PM 38.8508 -74.6267 220° Southwest 425 489 26,000  Level Washington Center
09:04PM 38.7536 -74.7186 216° Southwest 430 495 26,000  Level Washington Center
09:05PM 38.6519 -74.7994 212° Southwest 436 502 26,000  Level Washington Center
09:06PM 38.5525 -74.8856 214° Southwest 441 507 26,000  Level Washington Center
09:07PM 38.4508 -74.9661 212° Southwest 436 502 26,000  Level Washington Center
09:08PM 38.3594 -75.0383 212° Southwest 436 502 26,000 -540 Level Washington Center
09:09PM 38.2472 -75.1317 213° Southwest 436 502 25,000 -1,440 Descending Washington Center
09:10PM 38.1475 -75.2142 213° Southwest 436 502 23,200 -1,860 Descending Washington Center
09:11PM 38.0475 -75.2964 213° Southwest 436 502 21,400 -1,860 Descending Washington Center
09:12PM 37.9478 -75.3783 213° Southwest 436 502 19,600 -1,800 Descending Washington Center
09:12PM 37.8894 -75.4233 211° Southwest 425 489 18,500 -1,560 Descending Washington Center
09:13PM 37.8164 -75.4814 212° Southwest 419 482 17,600 -1,680 Descending Washington Center
09:14PM 37.7519 -75.5314 212° Southwest 431 496 16,200 -2,280 Descending Washington Center
09:15PM 37.6600 -75.5969 209° Southwest 416 479 13,800 -2,340 Descending Washington Center
09:16PM 37.5767 -75.6653 213° Southwest 385 443 11,600 -1,800 Descending Washington Center
09:17PM 37.5036 -75.7175 210° Southwest 345 397 10,300 -1,440 Descending Washington Center
09:18PM 37.4389 -75.7644 210° Southwest 302 348 8,800 -1,380 Descending Washington Center
09:19PM 37.3742 -75.8114 210° Southwest 282 325 7,600 -1,260 Descending Washington Center
09:20PM 37.3114 -75.8583 211° Southwest 269 310 6,300 -1,200 Descending Washington Center
09:21PM 37.2489 -75.9050 211° Southwest 269 310 5,200 -1,080 Descending Washington Center
09:22PM 37.1881 -75.9517 211° Southwest 269 310 4,200 -960 Descending Washington Center
09:23PM 37.1150 -76.0061 211° Southwest 216 249 3,100 -840 Descending Washington Center
09:24PM 37.0669 -76.0394 209° Southwest 185 213 2,300 -600 Descending Washington Center
09:25PM 37.0208 -76.0783 214° Southwest 183 211 2,000 -240 Descending Washington Center
09:26PM 36.9831 -76.1144 217° Southwest 163 188 1,900 -120 Descending Washington Center